sensor_id;sensor_type;location;lat;lon;timestamp;P1;durP1;ratioP1;P2;durP2;ratioP2
2111;SDS011;1062;52.538;13.400;2023-05-08T00:01:50;6.00;;;5.50;;
2111;SDS011;1062;52.538;13.400;2023-05-08T00:04:16;4.30;;;4.00;;
2111;SDS011;1062;52.538;13.400;2023-05-08T00:06:44;5.43;;;4.93;;
2111;SDS011;1062;52.538;13.400;2023-05-08T00:09:10;5.13;;;4.57;;
2111;SDS011;1062;52.538;13.400;2023-05-08T00:11:35;4.70;;;4.30;;
2111;SDS011;1062;52.538;13.400;2023-05-08T00:14:01;4.30;;;4.00;;
2111;SDS011;1062;52.538;13.400;2023-05-08T00:16:27;7.07;;;4.90;;
2111;SDS011;1062;52.538;13.400;2023-05-08T00:18:52;5.90;;;5.07;;
2111;SDS011;1062;52.538;13.400;2023-05-08T00:21:18;5.50;;;5.10;;
2111;SDS011;1062;52.538;13.400;2023-05-08T00:23:44;5.90;;;4.57;;
2111;SDS011;1062;52.538;13.400;2023-05-08T00:26:10;5.30;;;4.80;;
2111;SDS011;1062;52.538;13.400;2023-05-08T00:28:35;5.00;;;4.60;;
2111;SDS011;1062;52.538;13.400;2023-05-08T00:31:01;5.83;;;5.23;;
2111;SDS011;1062;52.538;13.400;2023-05-08T00:33:27;5.43;;;5.00;;
2111;SDS011;1062;52.538;13.400;2023-05-08T00:35:59;5.83;;;4.50;;
2111;SDS011;1062;52.538;13.400;2023-05-08T00:38:31;5.40;;;4.90;;
2111;SDS011;1062;52.538;13.400;2023-05-08T00:40:57;5.47;;;5.00;;
2111;SDS011;1062;52.538;13.400;2023-05-08T00:43:23;5.50;;;5.10;;
2111;SDS011;1062;52.538;13.400;2023-05-08T00:45:52;5.53;;;5.03;;
2111;SDS011;1062;52.538;13.400;2023-05-08T00:48:19;8.43;;;5.90;;
2111;SDS011;1062;52.538;13.400;2023-05-08T00:50:46;5.87;;;4.57;;
2111;SDS011;1062;52.538;13.400;2023-05-08T00:53:12;7.97;;;5.90;;
2111;SDS011;1062;52.538;13.400;2023-05-08T00:55:39;5.53;;;5.03;;
2111;SDS011;1062;52.538;13.400;2023-05-08T00:58:04;7.23;;;6.07;;
2111;SDS011;1062;52.538;13.400;2023-05-08T01:00:30;6.73;;;6.00;;
2111;SDS011;1062;52.538;13.400;2023-05-08T01:02:58;5.50;;;5.00;;
2111;SDS011;1062;52.538;13.400;2023-05-08T01:05:24;6.57;;;5.40;;
2111;SDS011;1062;52.538;13.400;2023-05-08T01:07:51;5.80;;;4.90;;
2111;SDS011;1062;52.538;13.400;2023-05-08T01:10:16;6.20;;;5.50;;
2111;SDS011;1062;52.538;13.400;2023-05-08T01:12:46;5.63;;;5.13;;
2111;SDS011;1062;52.538;13.400;2023-05-08T01:15:40;5.27;;;4.80;;
2111;SDS011;1062;52.538;13.400;2023-05-08T01:18:41;6.80;;;6.07;;
2111;SDS011;1062;52.538;13.400;2023-05-08T01:21:16;7.37;;;5.47;;
2111;SDS011;1062;52.538;13.400;2023-05-08T01:32:38;7.37;;;6.17;;
2111;SDS011;1062;52.538;13.400;2023-05-08T01:41:15;6.30;;;5.70;;
2111;SDS011;1062;52.538;13.400;2023-05-08T01:46:24;6.17;;;5.60;;
2111;SDS011;1062;52.538;13.400;2023-05-08T01:51:45;10.80;;;6.10;;
2111;SDS011;1062;52.538;13.400;2023-05-08T01:54:14;5.37;;;4.87;;
2111;SDS011;1062;52.538;13.400;2023-05-08T01:56:43;7.30;;;6.10;;
2111;SDS011;1062;52.538;13.400;2023-05-08T01:59:12;6.40;;;5.77;;
2111;SDS011;1062;52.538;13.400;2023-05-08T02:01:40;5.07;;;4.57;;
2111;SDS011;1062;52.538;13.400;2023-05-08T02:04:07;6.10;;;5.50;;
2111;SDS011;1062;52.538;13.400;2023-05-08T02:06:35;6.17;;;5.60;;
2111;SDS011;1062;52.538;13.400;2023-05-08T02:09:02;7.30;;;5.43;;
2111;SDS011;1062;52.538;13.400;2023-05-08T02:11:31;6.40;;;5.17;;
2111;SDS011;1062;52.538;13.400;2023-05-08T02:13:59;6.73;;;6.00;;
2111;SDS011;1062;52.538;13.400;2023-05-08T02:16:26;6.60;;;6.00;;
2111;SDS011;1062;52.538;13.400;2023-05-08T02:18:54;6.70;;;6.03;;
2111;SDS011;1062;52.538;13.400;2023-05-08T02:21:22;7.80;;;6.20;;
2111;SDS011;1062;52.538;13.400;2023-05-08T02:23:49;6.70;;;6.10;;
2111;SDS011;1062;52.538;13.400;2023-05-08T02:26:16;6.70;;;5.53;;
2111;SDS011;1062;52.538;13.400;2023-05-08T02:28:43;6.07;;;5.47;;
2111;SDS011;1062;52.538;13.400;2023-05-08T02:31:09;5.90;;;5.37;;
2111;SDS011;1062;52.538;13.400;2023-05-08T02:33:37;6.43;;;5.87;;
2111;SDS011;1062;52.538;13.400;2023-05-08T02:36:06;6.37;;;5.77;;
2111;SDS011;1062;52.538;13.400;2023-05-08T02:38:32;7.87;;;5.40;;
2111;SDS011;1062;52.538;13.400;2023-05-08T02:41:01;6.40;;;5.77;;
2111;SDS011;1062;52.538;13.400;2023-05-08T02:43:30;6.53;;;5.80;;
2111;SDS011;1062;52.538;13.400;2023-05-08T02:51:52;5.17;;;4.77;;
2111;SDS011;1062;52.538;13.400;2023-05-08T02:54:29;6.80;;;6.00;;
2111;SDS011;1062;52.538;13.400;2023-05-08T03:00:11;6.03;;;5.50;;
2111;SDS011;1062;52.538;13.400;2023-05-08T03:05:56;6.27;;;5.37;;
2111;SDS011;1062;52.538;13.400;2023-05-08T03:08:29;6.43;;;5.83;;
2111;SDS011;1062;52.538;13.400;2023-05-08T03:10:58;8.83;;;6.00;;
2111;SDS011;1062;52.538;13.400;2023-05-08T03:13:28;6.33;;;5.50;;
2111;SDS011;1062;52.538;13.400;2023-05-08T03:15:59;7.63;;;6.90;;
2111;SDS011;1062;52.538;13.400;2023-05-08T03:18:31;6.23;;;5.63;;
2111;SDS011;1062;52.538;13.400;2023-05-08T03:21:00;6.03;;;5.40;;
2111;SDS011;1062;52.538;13.400;2023-05-08T03:23:28;6.67;;;5.97;;
2111;SDS011;1062;52.538;13.400;2023-05-08T03:25:56;6.00;;;5.40;;
2111;SDS011;1062;52.538;13.400;2023-05-08T03:28:23;7.53;;;6.50;;
2111;SDS011;1062;52.538;13.400;2023-05-08T03:30:50;6.73;;;5.67;;
2111;SDS011;1062;52.538;13.400;2023-05-08T03:33:16;8.40;;;6.10;;
2111;SDS011;1062;52.538;13.400;2023-05-08T03:35:44;5.47;;;4.97;;
2111;SDS011;1062;52.538;13.400;2023-05-08T03:38:10;6.40;;;5.20;;
2111;SDS011;1062;52.538;13.400;2023-05-08T03:40:36;5.50;;;4.93;;
2111;SDS011;1062;52.538;13.400;2023-05-08T03:43:08;7.57;;;5.83;;
2111;SDS011;1062;52.538;13.400;2023-05-08T03:45:35;6.67;;;5.80;;
2111;SDS011;1062;52.538;13.400;2023-05-08T03:48:03;7.17;;;5.30;;
2111;SDS011;1062;52.538;13.400;2023-05-08T03:50:30;6.80;;;5.90;;
2111;SDS011;1062;52.538;13.400;2023-05-08T03:52:57;6.43;;;5.87;;
2111;SDS011;1062;52.538;13.400;2023-05-08T03:55:23;6.63;;;6.03;;
2111;SDS011;1062;52.538;13.400;2023-05-08T03:57:50;9.30;;;6.97;;
2111;SDS011;1062;52.538;13.400;2023-05-08T04:03:04;6.70;;;6.10;;
2111;SDS011;1062;52.538;13.400;2023-05-08T04:06:16;7.17;;;5.73;;
2111;SDS011;1062;52.538;13.400;2023-05-08T04:08:54;8.23;;;6.50;;
2111;SDS011;1062;52.538;13.400;2023-05-08T04:11:31;8.90;;;7.27;;
2111;SDS011;1062;52.538;13.400;2023-05-08T04:14:18;7.37;;;6.27;;
2111;SDS011;1062;52.538;13.400;2023-05-08T04:16:49;7.07;;;5.57;;
2111;SDS011;1062;52.538;13.400;2023-05-08T04:19:18;8.10;;;6.50;;
2111;SDS011;1062;52.538;13.400;2023-05-08T04:21:48;7.30;;;6.50;;
2111;SDS011;1062;52.538;13.400;2023-05-08T04:24:15;8.23;;;6.40;;
2111;SDS011;1062;52.538;13.400;2023-05-08T04:26:43;8.20;;;6.50;;
2111;SDS011;1062;52.538;13.400;2023-05-08T04:29:09;7.40;;;6.47;;
2111;SDS011;1062;52.538;13.400;2023-05-08T04:31:35;7.83;;;6.67;;
2111;SDS011;1062;52.538;13.400;2023-05-08T04:34:02;7.07;;;6.37;;
2111;SDS011;1062;52.538;13.400;2023-05-08T04:36:29;7.50;;;6.30;;
2111;SDS011;1062;52.538;13.400;2023-05-08T04:38:55;11.90;;;7.63;;
2111;SDS011;1062;52.538;13.400;2023-05-08T04:41:21;7.93;;;6.10;;
2111;SDS011;1062;52.538;13.400;2023-05-08T04:43:47;7.07;;;5.73;;
2111;SDS011;1062;52.538;13.400;2023-05-08T04:46:13;7.37;;;6.47;;
2111;SDS011;1062;52.538;13.400;2023-05-08T04:48:39;7.67;;;6.40;;
2111;SDS011;1062;52.538;13.400;2023-05-08T04:51:04;7.70;;;6.33;;
2111;SDS011;1062;52.538;13.400;2023-05-08T04:53:30;6.17;;;5.67;;
2111;SDS011;1062;52.538;13.400;2023-05-08T04:55:56;6.60;;;5.63;;
2111;SDS011;1062;52.538;13.400;2023-05-08T04:58:22;8.30;;;6.10;;
2111;SDS011;1062;52.538;13.400;2023-05-08T05:00:48;5.90;;;5.17;;
2111;SDS011;1062;52.538;13.400;2023-05-08T05:03:13;7.03;;;5.53;;
2111;SDS011;1062;52.538;13.400;2023-05-08T05:05:39;7.87;;;6.40;;
2111;SDS011;1062;52.538;13.400;2023-05-08T05:08:05;6.53;;;5.93;;
2111;SDS011;1062;52.538;13.400;2023-05-08T05:10:30;6.87;;;4.93;;
2111;SDS011;1062;52.538;13.400;2023-05-08T05:12:56;5.47;;;4.97;;
2111;SDS011;1062;52.538;13.400;2023-05-08T05:15:22;6.40;;;4.30;;
2111;SDS011;1062;52.538;13.400;2023-05-08T05:17:47;4.93;;;4.43;;
2111;SDS011;1062;52.538;13.400;2023-05-08T05:20:13;7.30;;;5.20;;
2111;SDS011;1062;52.538;13.400;2023-05-08T05:22:39;7.20;;;4.70;;
2111;SDS011;1062;52.538;13.400;2023-05-08T05:25:05;5.00;;;4.43;;
2111;SDS011;1062;52.538;13.400;2023-05-08T05:27:33;5.47;;;3.80;;
2111;SDS011;1062;52.538;13.400;2023-05-08T05:30:00;4.67;;;4.20;;
2111;SDS011;1062;52.538;13.400;2023-05-08T05:32:26;7.37;;;4.50;;
2111;SDS011;1062;52.538;13.400;2023-05-08T05:34:51;4.67;;;4.17;;
2111;SDS011;1062;52.538;13.400;2023-05-08T05:37:17;4.70;;;4.27;;
2111;SDS011;1062;52.538;13.400;2023-05-08T05:39:43;4.87;;;4.47;;
2111;SDS011;1062;52.538;13.400;2023-05-08T05:42:09;4.50;;;4.10;;
2111;SDS011;1062;52.538;13.400;2023-05-08T05:44:35;5.90;;;5.00;;
2111;SDS011;1062;52.538;13.400;2023-05-08T05:47:01;4.80;;;4.03;;
2111;SDS011;1062;52.538;13.400;2023-05-08T05:49:29;6.70;;;4.00;;
2111;SDS011;1062;52.538;13.400;2023-05-08T05:51:54;4.70;;;3.80;;
2111;SDS011;1062;52.538;13.400;2023-05-08T05:54:20;4.93;;;3.60;;
2111;SDS011;1062;52.538;13.400;2023-05-08T05:56:46;6.07;;;3.80;;
2111;SDS011;1062;52.538;13.400;2023-05-08T05:59:12;3.27;;;3.07;;
2111;SDS011;1062;52.538;13.400;2023-05-08T06:01:38;3.60;;;3.30;;
2111;SDS011;1062;52.538;13.400;2023-05-08T06:04:04;5.23;;;3.30;;
2111;SDS011;1062;52.538;13.400;2023-05-08T06:06:29;4.10;;;3.23;;
2111;SDS011;1062;52.538;13.400;2023-05-08T06:08:55;4.00;;;3.53;;
2111;SDS011;1062;52.538;13.400;2023-05-08T06:11:21;3.80;;;2.93;;
2111;SDS011;1062;52.538;13.400;2023-05-08T06:13:47;4.63;;;3.60;;
2111;SDS011;1062;52.538;13.400;2023-05-08T06:16:13;3.60;;;3.23;;
2111;SDS011;1062;52.538;13.400;2023-05-08T06:18:39;3.40;;;2.97;;
2111;SDS011;1062;52.538;13.400;2023-05-08T06:21:05;3.40;;;3.10;;
2111;SDS011;1062;52.538;13.400;2023-05-08T06:23:31;3.63;;;3.10;;
2111;SDS011;1062;52.538;13.400;2023-05-08T06:25:57;3.40;;;2.90;;
2111;SDS011;1062;52.538;13.400;2023-05-08T06:28:22;2.83;;;2.57;;
2111;SDS011;1062;52.538;13.400;2023-05-08T06:30:50;3.20;;;2.80;;
2111;SDS011;1062;52.538;13.400;2023-05-08T06:33:16;3.73;;;2.50;;
2111;SDS011;1062;52.538;13.400;2023-05-08T06:35:44;3.57;;;2.23;;
2111;SDS011;1062;52.538;13.400;2023-05-08T06:38:11;3.30;;;3.00;;
2111;SDS011;1062;52.538;13.400;2023-05-08T06:40:40;3.17;;;2.87;;
2111;SDS011;1062;52.538;13.400;2023-05-08T06:43:07;2.90;;;2.10;;
2111;SDS011;1062;52.538;13.400;2023-05-08T06:45:33;3.83;;;2.40;;
2111;SDS011;1062;52.538;13.400;2023-05-08T06:47:58;3.70;;;3.40;;
2111;SDS011;1062;52.538;13.400;2023-05-08T06:50:24;4.33;;;2.70;;
2111;SDS011;1062;52.538;13.400;2023-05-08T06:52:50;2.73;;;2.20;;
2111;SDS011;1062;52.538;13.400;2023-05-08T06:55:15;13.90;;;3.30;;
2111;SDS011;1062;52.538;13.400;2023-05-08T06:57:41;4.70;;;3.00;;
2111;SDS011;1062;52.538;13.400;2023-05-08T07:00:07;4.20;;;2.93;;
2111;SDS011;1062;52.538;13.400;2023-05-08T07:02:34;5.97;;;2.50;;
2111;SDS011;1062;52.538;13.400;2023-05-08T07:04:59;2.23;;;2.10;;
2111;SDS011;1062;52.538;13.400;2023-05-08T07:07:25;2.60;;;2.27;;
2111;SDS011;1062;52.538;13.400;2023-05-08T07:09:51;2.77;;;2.13;;
2111;SDS011;1062;52.538;13.400;2023-05-08T07:12:16;2.77;;;2.47;;
2111;SDS011;1062;52.538;13.400;2023-05-08T07:14:42;3.30;;;2.70;;
2111;SDS011;1062;52.538;13.400;2023-05-08T07:17:11;2.70;;;2.23;;
2111;SDS011;1062;52.538;13.400;2023-05-08T07:19:37;3.40;;;2.53;;
2111;SDS011;1062;52.538;13.400;2023-05-08T07:22:03;3.20;;;2.60;;
2111;SDS011;1062;52.538;13.400;2023-05-08T07:24:29;5.30;;;2.80;;
2111;SDS011;1062;52.538;13.400;2023-05-08T07:26:56;2.47;;;2.27;;
2111;SDS011;1062;52.538;13.400;2023-05-08T07:29:23;2.60;;;2.40;;
2111;SDS011;1062;52.538;13.400;2023-05-08T07:31:52;3.83;;;2.53;;
2111;SDS011;1062;52.538;13.400;2023-05-08T07:34:18;3.20;;;2.23;;
2111;SDS011;1062;52.538;13.400;2023-05-08T07:36:44;3.20;;;2.77;;
2111;SDS011;1062;52.538;13.400;2023-05-08T07:39:09;7.73;;;2.57;;
2111;SDS011;1062;52.538;13.400;2023-05-08T07:41:35;2.47;;;2.27;;
2111;SDS011;1062;52.538;13.400;2023-05-08T07:44:02;2.80;;;2.60;;
2111;SDS011;1062;52.538;13.400;2023-05-08T07:46:28;2.80;;;2.13;;
2111;SDS011;1062;52.538;13.400;2023-05-08T07:48:53;3.10;;;2.63;;
2111;SDS011;1062;52.538;13.400;2023-05-08T07:51:19;2.90;;;2.70;;
2111;SDS011;1062;52.538;13.400;2023-05-08T07:53:45;2.77;;;2.43;;
2111;SDS011;1062;52.538;13.400;2023-05-08T07:56:12;2.80;;;2.60;;
2111;SDS011;1062;52.538;13.400;2023-05-08T07:58:38;4.90;;;2.40;;
2111;SDS011;1062;52.538;13.400;2023-05-08T08:01:04;2.73;;;2.47;;
2111;SDS011;1062;52.538;13.400;2023-05-08T08:03:30;3.23;;;2.93;;
2111;SDS011;1062;52.538;13.400;2023-05-08T08:05:55;4.20;;;2.07;;
2111;SDS011;1062;52.538;13.400;2023-05-08T08:08:21;2.50;;;1.90;;
2111;SDS011;1062;52.538;13.400;2023-05-08T08:10:47;3.57;;;1.77;;
2111;SDS011;1062;52.538;13.400;2023-05-08T08:13:13;2.53;;;1.93;;
2111;SDS011;1062;52.538;13.400;2023-05-08T08:15:39;2.57;;;2.00;;
2111;SDS011;1062;52.538;13.400;2023-05-08T08:18:05;5.20;;;2.60;;
2111;SDS011;1062;52.538;13.400;2023-05-08T08:20:31;2.20;;;2.10;;
2111;SDS011;1062;52.538;13.400;2023-05-08T08:22:57;3.13;;;2.00;;
2111;SDS011;1062;52.538;13.400;2023-05-08T08:25:23;2.60;;;2.17;;
2111;SDS011;1062;52.538;13.400;2023-05-08T08:27:49;2.30;;;2.10;;
2111;SDS011;1062;52.538;13.400;2023-05-08T08:30:15;2.70;;;2.33;;
2111;SDS011;1062;52.538;13.400;2023-05-08T08:32:40;2.43;;;1.77;;
2111;SDS011;1062;52.538;13.400;2023-05-08T08:35:06;2.57;;;2.37;;
2111;SDS011;1062;52.538;13.400;2023-05-08T08:37:32;3.07;;;2.00;;
2111;SDS011;1062;52.538;13.400;2023-05-08T08:39:58;2.73;;;2.47;;
2111;SDS011;1062;52.538;13.400;2023-05-08T08:42:24;2.03;;;1.90;;
2111;SDS011;1062;52.538;13.400;2023-05-08T08:44:49;2.40;;;2.20;;
2111;SDS011;1062;52.538;13.400;2023-05-08T08:47:15;3.50;;;3.20;;
2111;SDS011;1062;52.538;13.400;2023-05-08T08:49:46;2.73;;;2.40;;
2111;SDS011;1062;52.538;13.400;2023-05-08T08:52:29;2.37;;;1.90;;
2111;SDS011;1062;52.538;13.400;2023-05-08T08:55:13;2.50;;;2.03;;
2111;SDS011;1062;52.538;13.400;2023-05-08T08:57:46;3.80;;;2.50;;
2111;SDS011;1062;52.538;13.400;2023-05-08T09:00:19;2.93;;;2.37;;
2111;SDS011;1062;52.538;13.400;2023-05-08T09:02:47;2.20;;;2.00;;
2111;SDS011;1062;52.538;13.400;2023-05-08T09:05:13;2.30;;;1.97;;
2111;SDS011;1062;52.538;13.400;2023-05-08T09:07:39;4.23;;;2.07;;
2111;SDS011;1062;52.538;13.400;2023-05-08T09:10:05;3.00;;;1.83;;
2111;SDS011;1062;52.538;13.400;2023-05-08T09:12:32;5.37;;;1.80;;
2111;SDS011;1062;52.538;13.400;2023-05-08T09:14:58;3.30;;;2.17;;
2111;SDS011;1062;52.538;13.400;2023-05-08T09:17:23;4.63;;;2.40;;
2111;SDS011;1062;52.538;13.400;2023-05-08T09:19:49;2.57;;;2.20;;
2111;SDS011;1062;52.538;13.400;2023-05-08T09:22:16;2.80;;;2.00;;
2111;SDS011;1062;52.538;13.400;2023-05-08T09:24:58;3.73;;;2.23;;
2111;SDS011;1062;52.538;13.400;2023-05-08T09:27:29;2.50;;;2.30;;
2111;SDS011;1062;52.538;13.400;2023-05-08T09:29:59;2.53;;;2.30;;
2111;SDS011;1062;52.538;13.400;2023-05-08T09:32:27;2.70;;;2.50;;
2111;SDS011;1062;52.538;13.400;2023-05-08T09:34:54;2.47;;;2.27;;
2111;SDS011;1062;52.538;13.400;2023-05-08T09:37:20;2.90;;;2.10;;
2111;SDS011;1062;52.538;13.400;2023-05-08T09:39:46;3.53;;;2.30;;
2111;SDS011;1062;52.538;13.400;2023-05-08T09:42:12;2.43;;;2.13;;
2111;SDS011;1062;52.538;13.400;2023-05-08T09:44:42;2.30;;;2.10;;
2111;SDS011;1062;52.538;13.400;2023-05-08T09:47:12;2.50;;;1.97;;
2111;SDS011;1062;52.538;13.400;2023-05-08T09:49:42;4.10;;;2.23;;
2111;SDS011;1062;52.538;13.400;2023-05-08T09:52:20;2.17;;;1.97;;
2111;SDS011;1062;52.538;13.400;2023-05-08T09:54:47;6.20;;;1.87;;
2111;SDS011;1062;52.538;13.400;2023-05-08T09:57:20;2.37;;;2.17;;
2111;SDS011;1062;52.538;13.400;2023-05-08T09:59:45;4.30;;;2.00;;
2111;SDS011;1062;52.538;13.400;2023-05-08T10:02:11;2.20;;;1.90;;
2111;SDS011;1062;52.538;13.400;2023-05-08T10:04:40;1.80;;;1.70;;
2111;SDS011;1062;52.538;13.400;2023-05-08T10:07:06;2.30;;;2.10;;
2111;SDS011;1062;52.538;13.400;2023-05-08T10:09:32;2.20;;;1.87;;
2111;SDS011;1062;52.538;13.400;2023-05-08T10:11:57;2.40;;;2.20;;
2111;SDS011;1062;52.538;13.400;2023-05-08T10:14:23;2.60;;;2.30;;
2111;SDS011;1062;52.538;13.400;2023-05-08T10:16:50;2.00;;;1.77;;
2111;SDS011;1062;52.538;13.400;2023-05-08T10:19:17;3.93;;;1.90;;
2111;SDS011;1062;52.538;13.400;2023-05-08T10:21:46;1.80;;;1.70;;
2111;SDS011;1062;52.538;13.400;2023-05-08T10:24:17;4.23;;;1.70;;
2111;SDS011;1062;52.538;13.400;2023-05-08T10:27:18;1.83;;;1.73;;
2111;SDS011;1062;52.538;13.400;2023-05-08T10:29:52;2.53;;;1.73;;
2111;SDS011;1062;52.538;13.400;2023-05-08T10:32:19;1.63;;;1.53;;
2111;SDS011;1062;52.538;13.400;2023-05-08T10:34:47;1.73;;;1.63;;
2111;SDS011;1062;52.538;13.400;2023-05-08T10:37:16;2.63;;;1.90;;
2111;SDS011;1062;52.538;13.400;2023-05-08T10:39:43;2.10;;;1.90;;
2111;SDS011;1062;52.538;13.400;2023-05-08T10:42:13;2.17;;;1.60;;
2111;SDS011;1062;52.538;13.400;2023-05-08T10:44:39;2.90;;;1.93;;
2111;SDS011;1062;52.538;13.400;2023-05-08T10:47:26;1.50;;;1.40;;
2111;SDS011;1062;52.538;13.400;2023-05-08T10:52:58;1.77;;;1.67;;
2111;SDS011;1062;52.538;13.400;2023-05-08T10:55:49;1.63;;;1.47;;
2111;SDS011;1062;52.538;13.400;2023-05-08T10:58:28;2.00;;;1.80;;
2111;SDS011;1062;52.538;13.400;2023-05-08T11:03:27;3.23;;;1.97;;
2111;SDS011;1062;52.538;13.400;2023-05-08T11:05:54;1.70;;;1.60;;
2111;SDS011;1062;52.538;13.400;2023-05-08T11:08:22;5.63;;;3.03;;
2111;SDS011;1062;52.538;13.400;2023-05-08T11:10:57;2.20;;;2.00;;
2111;SDS011;1062;52.538;13.400;2023-05-08T11:13:29;2.20;;;2.00;;
2111;SDS011;1062;52.538;13.400;2023-05-08T11:15:59;3.40;;;2.30;;
2111;SDS011;1062;52.538;13.400;2023-05-08T11:18:25;2.07;;;1.83;;
2111;SDS011;1062;52.538;13.400;2023-05-08T11:20:55;3.00;;;2.00;;
2111;SDS011;1062;52.538;13.400;2023-05-08T11:23:22;3.50;;;1.60;;
2111;SDS011;1062;52.538;13.400;2023-05-08T11:25:57;2.13;;;1.83;;
2111;SDS011;1062;52.538;13.400;2023-05-08T11:28:24;1.90;;;1.53;;
2111;SDS011;1062;52.538;13.400;2023-05-08T11:30:52;1.60;;;1.50;;
2111;SDS011;1062;52.538;13.400;2023-05-08T11:33:19;2.40;;;1.80;;
2111;SDS011;1062;52.538;13.400;2023-05-08T11:40:54;2.63;;;2.20;;
2111;SDS011;1062;52.538;13.400;2023-05-08T11:46:15;2.43;;;1.90;;
2111;SDS011;1062;52.538;13.400;2023-05-08T11:48:43;3.03;;;1.60;;
2111;SDS011;1062;52.538;13.400;2023-05-08T11:51:09;1.90;;;1.60;;
2111;SDS011;1062;52.538;13.400;2023-05-08T11:53:35;2.03;;;1.50;;
2111;SDS011;1062;52.538;13.400;2023-05-08T11:56:02;5.00;;;1.60;;
2111;SDS011;1062;52.538;13.400;2023-05-08T11:58:28;2.03;;;1.87;;
2111;SDS011;1062;52.538;13.400;2023-05-08T12:00:53;1.97;;;1.53;;
2111;SDS011;1062;52.538;13.400;2023-05-08T12:03:20;2.40;;;1.93;;
2111;SDS011;1062;52.538;13.400;2023-05-08T12:05:47;4.40;;;1.60;;
2111;SDS011;1062;52.538;13.400;2023-05-08T12:08:14;2.00;;;1.80;;
2111;SDS011;1062;52.538;13.400;2023-05-08T12:15:45;2.03;;;1.70;;
2111;SDS011;1062;52.538;13.400;2023-05-08T12:18:12;1.40;;;1.30;;
2111;SDS011;1062;52.538;13.400;2023-05-08T12:20:38;3.17;;;2.27;;
2111;SDS011;1062;52.538;13.400;2023-05-08T12:23:03;2.47;;;2.00;;
2111;SDS011;1062;52.538;13.400;2023-05-08T12:25:29;1.80;;;1.57;;
2111;SDS011;1062;52.538;13.400;2023-05-08T12:27:55;1.53;;;1.40;;
2111;SDS011;1062;52.538;13.400;2023-05-08T12:30:20;5.83;;;1.70;;
2111;SDS011;1062;52.538;13.400;2023-05-08T12:32:46;2.63;;;1.60;;
2111;SDS011;1062;52.538;13.400;2023-05-08T12:35:12;3.20;;;1.50;;
2111;SDS011;1062;52.538;13.400;2023-05-08T12:37:38;1.80;;;1.70;;
2111;SDS011;1062;52.538;13.400;2023-05-08T12:40:04;1.90;;;1.70;;
2111;SDS011;1062;52.538;13.400;2023-05-08T12:45:32;1.77;;;1.30;;
2111;SDS011;1062;52.538;13.400;2023-05-08T12:48:01;3.43;;;1.73;;
2111;SDS011;1062;52.538;13.400;2023-05-08T12:50:32;1.57;;;1.47;;
2111;SDS011;1062;52.538;13.400;2023-05-08T12:53:09;2.73;;;2.03;;
2111;SDS011;1062;52.538;13.400;2023-05-08T12:55:48;2.63;;;1.87;;
2111;SDS011;1062;52.538;13.400;2023-05-08T12:58:18;3.43;;;1.47;;
2111;SDS011;1062;52.538;13.400;2023-05-08T13:00:48;2.00;;;1.80;;
2111;SDS011;1062;52.538;13.400;2023-05-08T13:03:25;3.73;;;2.03;;
2111;SDS011;1062;52.538;13.400;2023-05-08T13:05:52;1.57;;;1.47;;
2111;SDS011;1062;52.538;13.400;2023-05-08T13:08:18;1.50;;;1.40;;
2111;SDS011;1062;52.538;13.400;2023-05-08T13:10:48;2.30;;;1.60;;
2111;SDS011;1062;52.538;13.400;2023-05-08T13:13:14;1.43;;;1.33;;
2111;SDS011;1062;52.538;13.400;2023-05-08T13:15:41;2.17;;;1.60;;
2111;SDS011;1062;52.538;13.400;2023-05-08T13:18:07;2.57;;;1.80;;
2111;SDS011;1062;52.538;13.400;2023-05-08T13:20:33;12.90;;;2.90;;
2111;SDS011;1062;52.538;13.400;2023-05-08T13:22:59;1.67;;;1.50;;
2111;SDS011;1062;52.538;13.400;2023-05-08T13:25:25;2.10;;;1.53;;
2111;SDS011;1062;52.538;13.400;2023-05-08T13:27:51;2.00;;;1.70;;
2111;SDS011;1062;52.538;13.400;2023-05-08T13:30:17;1.70;;;1.60;;
2111;SDS011;1062;52.538;13.400;2023-05-08T13:32:42;1.87;;;1.57;;
2111;SDS011;1062;52.538;13.400;2023-05-08T13:35:08;1.80;;;1.50;;
2111;SDS011;1062;52.538;13.400;2023-05-08T13:37:34;2.00;;;1.60;;
2111;SDS011;1062;52.538;13.400;2023-05-08T13:39:59;2.00;;;1.80;;
2111;SDS011;1062;52.538;13.400;2023-05-08T13:42:25;4.90;;;2.13;;
2111;SDS011;1062;52.538;13.400;2023-05-08T13:44:51;1.70;;;1.60;;
2111;SDS011;1062;52.538;13.400;2023-05-08T13:47:16;2.00;;;1.63;;
2111;SDS011;1062;52.538;13.400;2023-05-08T13:49:42;3.73;;;1.90;;
2111;SDS011;1062;52.538;13.400;2023-05-08T13:52:08;1.70;;;1.60;;
2111;SDS011;1062;52.538;13.400;2023-05-08T13:54:34;1.93;;;1.40;;
2111;SDS011;1062;52.538;13.400;2023-05-08T13:57:00;2.07;;;1.87;;
2111;SDS011;1062;52.538;13.400;2023-05-08T13:59:26;4.60;;;1.80;;
2111;SDS011;1062;52.538;13.400;2023-05-08T14:01:52;2.20;;;1.90;;
2111;SDS011;1062;52.538;13.400;2023-05-08T14:04:18;2.50;;;1.93;;
2111;SDS011;1062;52.538;13.400;2023-05-08T14:06:43;5.27;;;2.00;;
2111;SDS011;1062;52.538;13.400;2023-05-08T14:09:09;2.10;;;1.80;;
2111;SDS011;1062;52.538;13.400;2023-05-08T14:11:35;1.80;;;1.70;;
2111;SDS011;1062;52.538;13.400;2023-05-08T14:14:01;6.43;;;2.17;;
2111;SDS011;1062;52.538;13.400;2023-05-08T14:16:27;8.03;;;2.10;;
2111;SDS011;1062;52.538;13.400;2023-05-08T14:18:52;1.90;;;1.70;;
2111;SDS011;1062;52.538;13.400;2023-05-08T14:21:18;2.17;;;1.90;;
2111;SDS011;1062;52.538;13.400;2023-05-08T14:23:43;3.27;;;2.13;;
2111;SDS011;1062;52.538;13.400;2023-05-08T14:26:09;1.60;;;1.50;;
2111;SDS011;1062;52.538;13.400;2023-05-08T14:28:35;3.50;;;1.97;;
2111;SDS011;1062;52.538;13.400;2023-05-08T14:31:00;4.07;;;2.20;;
2111;SDS011;1062;52.538;13.400;2023-05-08T14:33:26;2.60;;;1.80;;
2111;SDS011;1062;52.538;13.400;2023-05-08T14:35:51;2.30;;;2.10;;
2111;SDS011;1062;52.538;13.400;2023-05-08T14:38:17;2.50;;;1.70;;
2111;SDS011;1062;52.538;13.400;2023-05-08T14:40:42;2.10;;;1.90;;
2111;SDS011;1062;52.538;13.400;2023-05-08T14:43:08;2.30;;;1.53;;
2111;SDS011;1062;52.538;13.400;2023-05-08T14:45:34;1.90;;;1.70;;
2111;SDS011;1062;52.538;13.400;2023-05-08T14:48:00;4.50;;;1.57;;
2111;SDS011;1062;52.538;13.400;2023-05-08T14:50:25;1.50;;;1.40;;
2111;SDS011;1062;52.538;13.400;2023-05-08T14:52:52;1.73;;;1.50;;
2111;SDS011;1062;52.538;13.400;2023-05-08T14:55:18;3.93;;;1.80;;
2111;SDS011;1062;52.538;13.400;2023-05-08T14:57:47;2.20;;;2.00;;
2111;SDS011;1062;52.538;13.400;2023-05-08T15:00:14;3.73;;;1.90;;
2111;SDS011;1062;52.538;13.400;2023-05-08T15:02:40;7.33;;;1.60;;
2111;SDS011;1062;52.538;13.400;2023-05-08T15:05:06;1.30;;;1.17;;
2111;SDS011;1062;52.538;13.400;2023-05-08T15:07:32;2.60;;;1.93;;
2111;SDS011;1062;52.538;13.400;2023-05-08T15:09:59;2.00;;;1.63;;
2111;SDS011;1062;52.538;13.400;2023-05-08T15:12:24;2.03;;;1.80;;
2111;SDS011;1062;52.538;13.400;2023-05-08T15:14:50;2.00;;;1.60;;
2111;SDS011;1062;52.538;13.400;2023-05-08T15:17:15;3.43;;;1.97;;
2111;SDS011;1062;52.538;13.400;2023-05-08T15:19:41;3.30;;;2.10;;
2111;SDS011;1062;52.538;13.400;2023-05-08T15:22:07;3.97;;;1.83;;
2111;SDS011;1062;52.538;13.400;2023-05-08T15:24:33;9.10;;;2.20;;
2111;SDS011;1062;52.538;13.400;2023-05-08T15:26:58;2.30;;;2.10;;
2111;SDS011;1062;52.538;13.400;2023-05-08T15:29:24;2.83;;;1.70;;
2111;SDS011;1062;52.538;13.400;2023-05-08T15:31:53;2.77;;;1.90;;
2111;SDS011;1062;52.538;13.400;2023-05-08T15:34:18;2.13;;;1.93;;
2111;SDS011;1062;52.538;13.400;2023-05-08T15:36:44;1.80;;;1.70;;
2111;SDS011;1062;52.538;13.400;2023-05-08T15:39:10;3.70;;;1.97;;
2111;SDS011;1062;52.538;13.400;2023-05-08T15:41:36;2.60;;;1.60;;
2111;SDS011;1062;52.538;13.400;2023-05-08T15:44:03;1.80;;;1.70;;
2111;SDS011;1062;52.538;13.400;2023-05-08T15:46:29;3.40;;;1.77;;
2111;SDS011;1062;52.538;13.400;2023-05-08T15:48:55;1.93;;;1.80;;
2111;SDS011;1062;52.538;13.400;2023-05-08T15:51:21;1.97;;;1.70;;
2111;SDS011;1062;52.538;13.400;2023-05-08T15:53:46;1.67;;;1.57;;
2111;SDS011;1062;52.538;13.400;2023-05-08T15:56:12;3.57;;;1.80;;
2111;SDS011;1062;52.538;13.400;2023-05-08T15:58:38;3.60;;;1.93;;
2111;SDS011;1062;52.538;13.400;2023-05-08T16:01:04;2.53;;;2.33;;